createdAt,value
2017-09-11T00:00:12.159Z,0
2017-09-11T00:00:52.759Z,0
2017-09-11T00:01:33.277Z,0
2017-09-11T00:02:13.907Z,0
2017-09-11T00:02:54.436Z,0
2017-09-11T00:03:35.016Z,0
2017-09-11T00:04:15.576Z,0
2017-09-11T00:04:56.245Z,0
2017-09-11T00:05:36.755Z,0
2017-09-11T00:06:17.334Z,0
2017-09-11T00:06:57.952Z,0
2017-09-11T00:07:38.596Z,0
2017-09-11T00:08:19.077Z,0
2017-09-11T00:08:59.652Z,0
2017-09-11T00:09:40.186Z,0
2017-09-11T00:10:20.702Z,0
2017-09-11T00:11:01.245Z,0
2017-09-11T00:11:41.805Z,0
2017-09-11T00:12:22.350Z,0
2017-09-11T00:13:02.936Z,0
2017-09-11T00:13:43.445Z,0
2017-09-11T00:14:24.053Z,0
2017-09-11T00:15:04.650Z,0
2017-09-11T00:15:45.151Z,0
2017-09-11T00:16:25.691Z,0
2017-09-11T00:17:06.213Z,0
2017-09-11T00:17:46.767Z,0
2017-09-11T00:18:27.274Z,0
2017-09-11T00:19:07.831Z,0
2017-09-11T00:19:48.345Z,0
2017-09-11T00:20:28.904Z,0
2017-09-11T00:21:09.441Z,0
2017-09-11T00:21:49.955Z,0
2017-09-11T00:22:30.495Z,0
2017-09-11T00:23:11.035Z,0
2017-09-11T00:23:51.661Z,0
2017-09-11T00:24:32.228Z,0
2017-09-11T00:25:12.761Z,0
2017-09-11T00:25:53.305Z,0
2017-09-11T00:26:33.847Z,0
2017-09-11T00:27:14.353Z,0
2017-09-11T00:27:54.846Z,0
2017-09-11T00:28:35.413Z,0
2017-09-11T00:29:15.995Z,0
2017-09-11T00:29:56.500Z,0
2017-09-11T00:30:37.066Z,0
2017-09-11T00:31:17.587Z,0
2017-09-11T00:31:58.146Z,0
2017-09-11T00:32:38.649Z,0
2017-09-11T00:33:19.147Z,0
2017-09-11T00:33:59.708Z,0
2017-09-11T00:34:40.247Z,0
2017-09-11T00:35:20.808Z,0
2017-09-11T00:36:01.304Z,0
2017-09-11T00:36:41.827Z,0
2017-09-11T00:37:22.376Z,0
2017-09-11T00:38:02.957Z,0
2017-09-11T00:38:43.462Z,0
2017-09-11T00:39:23.983Z,0
2017-09-11T00:40:04.514Z,0
2017-09-11T00:40:45.119Z,0
2017-09-11T00:41:25.557Z,0
2017-09-11T00:42:06.071Z,0
2017-09-11T00:42:46.633Z,0
2017-09-11T00:43:27.146Z,0
2017-09-11T00:44:07.682Z,0
2017-09-11T00:44:48.261Z,0
2017-09-11T00:45:28.781Z,0
2017-09-11T00:46:09.327Z,0
2017-09-11T00:46:49.838Z,0
2017-09-11T00:47:30.377Z,0
2017-09-11T00:48:10.898Z,0
2017-09-11T00:48:51.481Z,0
2017-09-11T00:49:32.038Z,0
2017-09-11T00:50:12.547Z,0
2017-09-11T00:50:53.108Z,0
2017-09-11T00:51:33.632Z,0
2017-09-11T00:52:14.172Z,0
2017-09-11T00:52:54.702Z,0
2017-09-11T00:53:35.225Z,0
2017-09-11T00:54:15.772Z,0
2017-09-11T00:54:57.173Z,0
2017-09-11T00:55:37.706Z,0
2017-09-11T00:56:18.218Z,0
2017-09-11T00:56:58.763Z,0
2017-09-11T00:57:39.335Z,0
2017-09-11T00:58:19.832Z,0
2017-09-11T00:59:00.387Z,0
2017-09-11T00:59:40.922Z,0
2017-09-11T01:00:21.476Z,0
2017-09-11T01:01:01.991Z,0
2017-09-11T01:01:42.517Z,0
2017-09-11T01:02:23.055Z,0
2017-09-11T01:03:03.587Z,0
2017-09-11T01:03:44.159Z,0
2017-09-11T01:04:24.652Z,0
2017-09-11T01:05:05.220Z,0
2017-09-11T01:05:45.769Z,0
2017-09-11T01:06:26.304Z,0
2017-09-11T01:07:06.806Z,0
2017-09-11T01:07:47.343Z,0
2017-09-11T01:08:27.867Z,0
2017-09-11T01:09:08.400Z,0
2017-09-11T01:09:48.953Z,0
2017-09-11T01:10:29.518Z,0
2017-09-11T01:11:10.069Z,0
2017-09-11T01:11:50.614Z,0
2017-09-11T01:12:31.123Z,0
2017-09-11T01:13:11.634Z,0
2017-09-11T01:13:52.172Z,0
2017-09-11T01:14:32.714Z,0
2017-09-11T01:15:13.278Z,0
2017-09-11T01:15:53.822Z,0
2017-09-11T01:16:34.382Z,0
2017-09-11T01:17:14.937Z,0
2017-09-11T01:17:55.475Z,0
2017-09-11T01:18:36.035Z,0
2017-09-11T01:19:16.518Z,0
2017-09-11T01:19:57.052Z,0
2017-09-11T01:20:37.592Z,0
2017-09-11T01:21:18.121Z,0
2017-09-11T01:21:58.682Z,0
2017-09-11T01:22:39.236Z,0
2017-09-11T01:23:19.745Z,0
2017-09-11T01:24:00.289Z,0
2017-09-11T01:24:40.799Z,0
2017-09-11T01:25:21.894Z,0
2017-09-11T01:26:02.422Z,0
2017-09-11T01:26:42.952Z,0
2017-09-11T01:27:23.476Z,0
2017-09-11T01:28:04.008Z,0
2017-09-11T01:28:44.514Z,0
2017-09-11T01:29:25.064Z,0
2017-09-11T01:30:05.576Z,0
2017-09-11T01:30:46.119Z,0
2017-09-11T01:31:26.673Z,0
2017-09-11T01:32:07.223Z,0
2017-09-11T01:32:47.791Z,0
2017-09-11T01:33:28.292Z,0
2017-09-11T01:34:08.841Z,0
2017-09-11T01:34:49.388Z,0
2017-09-11T01:35:29.906Z,0
2017-09-11T01:36:10.446Z,0
2017-09-11T01:36:50.972Z,0
2017-09-11T01:37:31.509Z,0
2017-09-11T01:38:12.050Z,0
2017-09-11T01:38:52.575Z,0
2017-09-11T01:39:33.106Z,0
2017-09-11T01:40:13.657Z,0
2017-09-11T01:40:54.166Z,0
2017-09-11T01:41:34.716Z,0
2017-09-11T01:42:15.222Z,0
2017-09-11T01:42:55.758Z,0
2017-09-11T01:43:36.319Z,0
2017-09-11T01:44:16.865Z,0
2017-09-11T01:44:57.392Z,0
2017-09-11T01:45:37.914Z,0
2017-09-11T01:46:18.442Z,0
2017-09-11T01:46:58.971Z,0
2017-09-11T01:47:39.522Z,0
2017-09-11T01:48:20.078Z,0
2017-09-11T01:49:00.597Z,0
2017-09-11T01:49:41.144Z,0
2017-09-11T01:50:21.668Z,0
2017-09-11T01:51:02.208Z,0
2017-09-11T01:51:42.729Z,0
2017-09-11T01:52:23.270Z,0
2017-09-11T01:53:03.807Z,0
2017-09-11T01:53:44.347Z,0
2017-09-11T01:54:24.874Z,0
2017-09-11T01:55:05.431Z,0
2017-09-11T01:55:45.988Z,0
2017-09-11T01:56:26.599Z,0
2017-09-11T01:57:07.114Z,0
2017-09-11T01:57:47.627Z,0
2017-09-11T01:58:28.204Z,0
2017-09-11T01:59:08.729Z,0
2017-09-11T01:59:49.287Z,0
2017-09-11T02:00:29.835Z,0
2017-09-11T02:01:10.350Z,0
2017-09-11T02:01:50.875Z,0
2017-09-11T02:02:31.418Z,0
2017-09-11T02:03:11.955Z,0
2017-09-11T02:03:52.496Z,0
2017-09-11T02:04:33.042Z,0
2017-09-11T02:05:13.595Z,0
2017-09-11T02:05:54.175Z,0
2017-09-11T02:06:34.715Z,0
2017-09-11T02:07:15.254Z,0
2017-09-11T02:07:55.806Z,0
2017-09-11T02:08:36.347Z,0
2017-09-11T02:09:16.891Z,0
2017-09-11T02:09:57.420Z,0
2017-09-11T02:10:37.983Z,0
2017-09-11T02:11:18.477Z,0
2017-09-11T02:11:59.007Z,0
2017-09-11T02:12:39.553Z,0
2017-09-11T02:13:20.115Z,0
2017-09-11T02:14:00.660Z,0
2017-09-11T02:14:41.206Z,0
2017-09-11T02:15:21.774Z,0
2017-09-11T02:16:02.310Z,0
2017-09-11T02:16:42.816Z,0
2017-09-11T02:17:23.350Z,0
2017-09-11T02:18:03.896Z,0
2017-09-11T02:18:44.436Z,0
2017-09-11T02:19:25.054Z,0
2017-09-11T02:20:05.599Z,0
2017-09-11T02:20:46.098Z,0
2017-09-11T02:21:26.648Z,0
2017-09-11T02:22:07.166Z,0
2017-09-11T02:22:47.739Z,0
2017-09-11T02:23:28.292Z,0
2017-09-11T02:24:08.829Z,0
2017-09-11T02:24:49.367Z,0
2017-09-11T02:25:29.931Z,0
2017-09-11T02:26:10.448Z,0
2017-09-11T02:26:50.953Z,0
2017-09-11T02:27:31.505Z,0
2017-09-11T02:28:12.035Z,0
2017-09-11T02:28:52.579Z,0
2017-09-11T02:29:33.173Z,0
2017-09-11T02:30:13.690Z,0
2017-09-11T02:30:54.217Z,0
2017-09-11T02:31:34.775Z,0
2017-09-11T02:32:15.328Z,0
2017-09-11T02:32:55.834Z,0
2017-09-11T02:33:36.365Z,0
2017-09-11T02:34:16.890Z,0
2017-09-11T02:34:57.444Z,0
2017-09-11T02:35:37.955Z,0
2017-09-11T02:36:19.021Z,0
2017-09-11T02:36:59.594Z,0
2017-09-11T02:37:40.094Z,0
2017-09-11T02:38:20.658Z,0
2017-09-11T02:39:01.132Z,0
2017-09-11T02:39:41.645Z,0
2017-09-11T02:40:22.188Z,0
2017-09-11T02:41:02.733Z,0
2017-09-11T02:41:43.329Z,0
2017-09-11T02:42:23.806Z,0
2017-09-11T02:43:04.355Z,0
2017-09-11T02:43:44.887Z,0
2017-09-11T02:44:25.406Z,0
2017-09-11T02:45:05.929Z,0
2017-09-11T02:45:46.419Z,0
2017-09-11T02:46:26.979Z,0
2017-09-11T02:47:07.554Z,0
2017-09-11T02:47:48.058Z,0
2017-09-11T02:48:28.605Z,0
2017-09-11T02:49:09.145Z,0
2017-09-11T02:49:49.642Z,0
2017-09-11T02:50:30.184Z,0
2017-09-11T02:51:10.740Z,0
2017-09-11T02:51:51.295Z,0
2017-09-11T02:52:31.758Z,0
2017-09-11T02:53:12.330Z,0
2017-09-11T02:53:52.827Z,0
2017-09-11T02:54:33.345Z,0
2017-09-11T02:55:13.899Z,0
2017-09-11T02:55:54.428Z,0
2017-09-11T02:56:34.972Z,0
2017-09-11T02:57:15.494Z,0
2017-09-11T02:57:56.010Z,0
2017-09-11T02:58:36.606Z,0
2017-09-11T02:59:17.142Z,0
2017-09-11T02:59:57.667Z,0
2017-09-11T03:00:38.190Z,0
2017-09-11T03:01:18.761Z,0
2017-09-11T03:01:59.308Z,0
2017-09-11T03:02:39.871Z,0
2017-09-11T03:03:20.452Z,0
2017-09-11T03:04:00.924Z,0
2017-09-11T03:04:41.476Z,0
2017-09-11T03:05:21.992Z,0
2017-09-11T03:06:02.511Z,0
2017-09-11T03:06:43.009Z,0
2017-09-11T03:07:23.622Z,0
2017-09-11T03:08:04.108Z,0
2017-09-11T03:08:44.658Z,0
2017-09-11T03:09:25.125Z,0
2017-09-11T03:10:05.674Z,0
2017-09-11T03:10:46.233Z,0
2017-09-11T03:11:26.734Z,0
2017-09-11T03:12:07.254Z,0
2017-09-11T03:12:47.796Z,0
2017-09-11T03:13:28.304Z,0
2017-09-11T03:14:08.850Z,0
2017-09-11T03:14:49.392Z,0
2017-09-11T03:15:29.915Z,0
2017-09-11T03:16:10.441Z,0
2017-09-11T03:16:50.987Z,0
2017-09-11T03:17:31.511Z,0
2017-09-11T03:18:12.045Z,0
2017-09-11T03:18:52.557Z,0
2017-09-11T03:19:33.080Z,0
2017-09-11T03:20:13.623Z,0
2017-09-11T03:20:54.156Z,0
2017-09-11T03:21:34.730Z,0
2017-09-11T03:22:15.215Z,0
2017-09-11T03:22:55.755Z,0
2017-09-11T03:23:36.310Z,0
2017-09-11T03:24:16.842Z,0
2017-09-11T03:24:57.371Z,0
2017-09-11T03:25:37.891Z,0
2017-09-11T03:26:18.478Z,0
2017-09-11T03:26:59.044Z,0
2017-09-11T03:27:39.579Z,0
2017-09-11T03:28:20.130Z,0
2017-09-11T03:29:00.668Z,0
2017-09-11T03:29:41.192Z,0
2017-09-11T03:30:21.719Z,0
2017-09-11T03:31:02.254Z,0
2017-09-11T03:31:42.812Z,0
2017-09-11T03:32:23.325Z,0
2017-09-11T03:33:03.852Z,0
2017-09-11T03:33:44.365Z,0
2017-09-11T03:34:24.974Z,0
2017-09-11T03:35:05.478Z,0
2017-09-11T03:35:46.002Z,0
2017-09-11T03:36:26.522Z,0
2017-09-11T03:37:07.095Z,0
2017-09-11T03:37:47.648Z,0
2017-09-11T03:38:28.210Z,0
2017-09-11T03:39:08.715Z,0
2017-09-11T03:39:49.220Z,0
2017-09-11T03:40:29.770Z,0
2017-09-11T03:41:10.319Z,0
2017-09-11T03:41:50.849Z,0
2017-09-11T03:42:31.421Z,0
2017-09-11T03:43:11.940Z,0
2017-09-11T03:43:52.528Z,0
2017-09-11T03:44:33.063Z,0
2017-09-11T03:45:13.571Z,0
2017-09-11T03:45:54.126Z,0
2017-09-11T03:46:34.642Z,0
2017-09-11T03:47:15.193Z,0
2017-09-11T03:47:55.726Z,0
2017-09-11T03:48:36.280Z,0
2017-09-11T03:49:16.817Z,0
2017-09-11T03:49:57.356Z,0
2017-09-11T03:50:37.917Z,0
2017-09-11T03:51:18.438Z,0
2017-09-11T03:51:58.949Z,0
2017-09-11T03:52:39.476Z,0
2017-09-11T03:53:20.031Z,0
2017-09-11T03:54:00.597Z,0
2017-09-11T03:54:41.128Z,0
2017-09-11T03:55:21.650Z,0
2017-09-11T03:56:02.250Z,0
2017-09-11T03:56:42.758Z,0
2017-09-11T03:57:23.266Z,0
2017-09-11T03:58:03.775Z,0
2017-09-11T03:58:44.362Z,0
2017-09-11T03:59:24.918Z,0
2017-09-11T04:00:05.456Z,0
2017-09-11T04:00:45.990Z,0
2017-09-11T04:01:26.521Z,0
2017-09-11T04:02:07.051Z,0
2017-09-11T04:02:47.608Z,0
2017-09-11T04:03:28.149Z,0
2017-09-11T04:04:08.687Z,0
2017-09-11T04:04:49.202Z,0
2017-09-11T04:05:29.762Z,0
2017-09-11T04:06:10.304Z,0
2017-09-11T04:06:50.814Z,0
2017-09-11T04:07:31.335Z,0
2017-09-11T04:08:11.904Z,0
2017-09-11T04:08:52.461Z,0
2017-09-11T04:09:33.005Z,0
2017-09-11T04:10:13.571Z,0
2017-09-11T04:10:54.091Z,0
2017-09-11T04:11:34.754Z,0
2017-09-11T04:12:15.319Z,0
2017-09-11T04:12:55.797Z,0
2017-09-11T04:13:36.312Z,0
2017-09-11T04:14:16.866Z,0
2017-09-11T04:14:57.378Z,0
2017-09-11T04:15:37.905Z,0
2017-09-11T04:16:18.427Z,0
2017-09-11T04:16:58.978Z,0
2017-09-11T04:17:39.501Z,0
2017-09-11T04:18:20.034Z,0
2017-09-11T04:19:00.568Z,0
2017-09-11T04:19:41.086Z,0
2017-09-11T04:20:21.626Z,0
2017-09-11T04:21:02.169Z,0
2017-09-11T04:21:42.682Z,0
2017-09-11T04:22:23.248Z,0
2017-09-11T04:23:03.840Z,0
2017-09-11T04:23:44.374Z,0
2017-09-11T04:24:24.926Z,0
2017-09-11T04:25:05.442Z,0
2017-09-11T04:25:45.949Z,0
2017-09-11T04:26:26.492Z,0
2017-09-11T04:27:07.029Z,0
2017-09-11T04:27:47.560Z,0
2017-09-11T04:28:28.106Z,0
2017-09-11T04:29:08.649Z,0
2017-09-11T04:29:49.150Z,0
2017-09-11T04:30:29.708Z,0
2017-09-11T04:31:10.261Z,0
2017-09-11T04:31:50.815Z,0
2017-09-11T04:32:31.336Z,0
2017-09-11T04:33:11.899Z,0
2017-09-11T04:33:52.392Z,0
2017-09-11T04:34:32.925Z,0
2017-09-11T04:35:13.449Z,0
2017-09-11T04:35:54.024Z,0
2017-09-11T04:36:34.548Z,0
2017-09-11T04:37:15.085Z,0
2017-09-11T04:37:55.583Z,0
2017-09-11T04:38:36.168Z,0
2017-09-11T04:39:16.674Z,0
2017-09-11T04:39:57.213Z,0
2017-09-11T04:40:37.712Z,0
2017-09-11T04:41:18.246Z,0
2017-09-11T04:41:58.782Z,0
2017-09-11T04:42:39.313Z,0
2017-09-11T04:43:19.836Z,0
2017-09-11T04:44:00.371Z,0
2017-09-11T04:44:40.968Z,0
2017-09-11T04:45:21.541Z,0
2017-09-11T04:46:02.093Z,0
2017-09-11T04:46:42.615Z,0
2017-09-11T04:47:23.190Z,0
2017-09-11T04:48:03.703Z,0
2017-09-11T04:48:44.255Z,0
2017-09-11T04:49:24.736Z,0
2017-09-11T04:50:05.292Z,0
2017-09-11T04:50:45.822Z,0
2017-09-11T04:51:26.376Z,0
2017-09-11T04:52:06.912Z,0
2017-09-11T04:52:47.427Z,0
2017-09-11T04:53:27.975Z,0
2017-09-11T04:54:08.579Z,0
2017-09-11T04:54:49.099Z,0
2017-09-11T04:55:29.612Z,0
2017-09-11T04:56:10.205Z,0
2017-09-11T04:56:50.732Z,0
2017-09-11T04:57:31.280Z,0
2017-09-11T04:58:11.791Z,0
2017-09-11T04:58:52.339Z,0
2017-09-11T04:59:32.839Z,0
2017-09-11T05:00:13.428Z,0
2017-09-11T05:00:53.981Z,0
2017-09-11T05:01:34.516Z,0
2017-09-11T05:02:15.046Z,0
2017-09-11T05:02:55.592Z,0
2017-09-11T05:03:36.091Z,0
2017-09-11T05:04:16.642Z,0
2017-09-11T05:04:57.145Z,0
2017-09-11T05:05:37.769Z,0
2017-09-11T05:06:18.247Z,0
2017-09-11T05:06:58.794Z,0
2017-09-11T05:07:39.324Z,5
2017-09-11T05:08:19.870Z,5
2017-09-11T05:09:00.369Z,5
2017-09-11T05:09:40.924Z,5
2017-09-11T05:10:21.455Z,5
2017-09-11T05:11:01.992Z,5
2017-09-11T05:11:42.518Z,5
2017-09-11T05:12:23.041Z,5
2017-09-11T05:13:03.583Z,5
2017-09-11T05:13:44.148Z,5
2017-09-11T05:14:24.931Z,10
2017-09-11T05:15:05.431Z,10
2017-09-11T05:15:45.992Z,10
2017-09-11T05:16:26.516Z,10
2017-09-11T05:17:07.031Z,15
2017-09-11T05:17:47.541Z,15
2017-09-11T05:18:28.040Z,15
2017-09-11T05:19:08.605Z,15
2017-09-11T05:19:49.140Z,15
2017-09-11T05:20:29.704Z,15
2017-09-11T05:21:10.243Z,15
2017-09-11T05:21:50.780Z,15
2017-09-11T05:22:31.346Z,15
2017-09-11T05:23:11.831Z,15
2017-09-11T05:23:52.355Z,15
2017-09-11T05:24:33.402Z,15
2017-09-11T05:25:14.036Z,15
2017-09-11T05:25:54.574Z,15
2017-09-11T05:26:35.068Z,15
2017-09-11T05:27:15.572Z,15
2017-09-11T05:27:56.129Z,15
2017-09-11T05:28:36.627Z,20
2017-09-11T05:29:17.175Z,20
2017-09-11T05:29:57.673Z,20
2017-09-11T05:30:38.204Z,20
2017-09-11T05:31:18.743Z,25
2017-09-11T05:31:59.265Z,25
2017-09-11T05:32:39.816Z,25
2017-09-11T05:33:20.349Z,25
2017-09-11T05:34:00.866Z,30
2017-09-11T05:34:41.431Z,30
2017-09-11T05:35:21.962Z,30
2017-09-11T05:36:02.514Z,30
2017-09-11T05:36:43.025Z,35
2017-09-11T05:37:23.677Z,35
2017-09-11T05:38:04.157Z,35
2017-09-11T05:38:44.699Z,35
2017-09-11T05:39:25.580Z,35
2017-09-11T05:40:06.334Z,35
2017-09-11T05:40:47.024Z,40
2017-09-11T05:41:27.764Z,40
2017-09-11T05:42:08.482Z,40
2017-09-11T05:42:49.076Z,45
2017-09-11T05:43:29.604Z,45
2017-09-11T05:44:10.323Z,45
2017-09-11T05:44:50.883Z,45
2017-09-11T05:45:31.719Z,45
2017-09-11T05:46:12.456Z,45
2017-09-11T05:46:52.978Z,50
2017-09-11T05:47:33.526Z,50
2017-09-11T05:48:14.069Z,45
2017-09-11T05:48:54.576Z,45
2017-09-11T05:49:35.082Z,45
2017-09-11T05:50:15.638Z,45
2017-09-11T05:50:56.208Z,45
2017-09-11T05:51:36.768Z,45
2017-09-11T05:52:17.278Z,50
2017-09-11T05:52:57.799Z,50
2017-09-11T05:53:38.316Z,55
2017-09-11T05:54:18.860Z,55
2017-09-11T05:54:59.380Z,55
2017-09-11T05:55:39.941Z,60
2017-09-11T05:56:20.456Z,65
2017-09-11T05:57:01.040Z,65
2017-09-11T05:57:41.568Z,70
2017-09-11T05:58:22.169Z,75
2017-09-11T05:59:02.642Z,80
2017-09-11T05:59:43.200Z,80
2017-09-11T06:00:23.730Z,80
2017-09-11T06:01:04.250Z,85
2017-09-11T06:01:44.822Z,90
2017-09-11T06:02:25.311Z,85
2017-09-11T06:03:05.851Z,80
2017-09-11T06:03:46.386Z,70
2017-09-11T06:04:26.932Z,60
2017-09-11T06:05:07.490Z,60
2017-09-11T06:05:48.038Z,60
2017-09-11T06:06:28.567Z,60
2017-09-11T06:07:09.097Z,65
2017-09-11T06:07:49.584Z,75
2017-09-11T06:08:30.150Z,80
2017-09-11T06:09:10.671Z,85
2017-09-11T06:09:51.249Z,85
2017-09-11T06:10:31.785Z,85
2017-09-11T06:11:12.365Z,90
2017-09-11T06:11:52.902Z,90
2017-09-11T06:12:33.390Z,95
2017-09-11T06:13:13.993Z,95
2017-09-11T06:13:54.568Z,100
2017-09-11T06:14:35.099Z,100
2017-09-11T06:15:15.633Z,95
2017-09-11T06:15:56.207Z,85
2017-09-11T06:16:36.803Z,70
2017-09-11T06:17:17.338Z,60
2017-09-11T06:17:57.830Z,55
2017-09-11T06:18:38.394Z,55
2017-09-11T06:19:18.933Z,55
2017-09-11T06:19:59.483Z,60
2017-09-11T06:20:40.056Z,65
2017-09-11T06:21:20.574Z,80
2017-09-11T06:22:01.055Z,100
2017-09-11T06:22:41.636Z,115
2017-09-11T06:23:22.155Z,130
2017-09-11T06:24:02.707Z,130
2017-09-11T06:24:43.234Z,120
2017-09-11T06:25:23.758Z,110
2017-09-11T06:26:04.280Z,120
2017-09-11T06:26:44.869Z,120
2017-09-11T06:27:25.421Z,115
2017-09-11T06:28:05.928Z,110
2017-09-11T06:28:46.517Z,115
2017-09-11T06:29:30.245Z,130
2017-09-11T06:30:07.560Z,140
2017-09-11T06:30:48.146Z,155
2017-09-11T06:31:31.523Z,175
2017-09-11T06:32:12.235Z,185
2017-09-11T06:32:52.742Z,190
2017-09-11T06:33:33.286Z,190
2017-09-11T06:34:13.881Z,190
2017-09-11T06:34:54.385Z,185
2017-09-11T06:35:34.956Z,175
2017-09-11T06:36:15.497Z,175
2017-09-11T06:36:56.016Z,180
2017-09-11T06:37:36.580Z,185
2017-09-11T06:38:17.243Z,185
2017-09-11T06:38:57.791Z,180
2017-09-11T06:39:38.361Z,160
2017-09-11T06:40:18.855Z,145
2017-09-11T06:40:59.399Z,130
2017-09-11T06:41:39.917Z,125
2017-09-11T06:42:20.472Z,115
2017-09-11T06:43:01.015Z,105
2017-09-11T06:43:41.551Z,105
2017-09-11T06:44:22.068Z,85
2017-09-11T06:45:03.654Z,80
2017-09-11T06:45:44.491Z,75
2017-09-11T06:46:25.143Z,80
2017-09-11T06:47:06.949Z,75
2017-09-11T06:47:47.507Z,75
2017-09-11T06:48:28.491Z,80
2017-09-11T06:49:08.654Z,80
2017-09-11T06:49:49.178Z,80
2017-09-11T06:50:29.746Z,80
2017-09-11T06:51:10.226Z,80
2017-09-11T06:51:50.853Z,80
2017-09-11T06:52:31.342Z,75
2017-09-11T06:53:12.466Z,75
2017-09-11T06:53:53.022Z,70
2017-09-11T06:54:33.643Z,65
2017-09-11T06:55:14.223Z,60
2017-09-11T06:55:54.740Z,65
2017-09-11T06:56:35.269Z,60
2017-09-11T06:57:15.831Z,60
2017-09-11T06:57:56.397Z,60
2017-09-11T06:58:36.927Z,60
2017-09-11T06:59:17.479Z,60
2017-09-11T06:59:58.080Z,60
2017-09-11T07:00:38.600Z,65
2017-09-11T07:01:19.157Z,70
2017-09-11T07:01:59.728Z,70
2017-09-11T07:02:40.258Z,65
2017-09-11T07:03:20.786Z,65
2017-09-11T07:04:01.339Z,60
2017-09-11T07:04:41.882Z,55
2017-09-11T07:05:22.451Z,55
2017-09-11T07:06:03.138Z,55
2017-09-11T07:06:43.662Z,55
2017-09-11T07:07:24.193Z,55
2017-09-11T07:08:04.742Z,55
2017-09-11T07:08:45.287Z,55
2017-09-11T07:09:25.846Z,55
2017-09-11T07:10:06.406Z,55
2017-09-11T07:10:46.916Z,55
2017-09-11T07:11:27.654Z,60
2017-09-11T07:12:08.308Z,65
2017-09-11T07:12:48.889Z,65
2017-09-11T07:13:29.442Z,65
2017-09-11T07:14:09.956Z,65
2017-09-11T07:14:50.469Z,60
2017-09-11T07:15:31.021Z,60
2017-09-11T07:16:11.567Z,65
2017-09-11T07:16:52.109Z,65
2017-09-11T07:17:32.669Z,65
2017-09-11T07:18:13.236Z,70
2017-09-11T07:18:53.734Z,70
2017-09-11T07:19:35.106Z,80
2017-09-11T07:20:15.678Z,75
2017-09-11T07:20:56.227Z,80
2017-09-11T07:21:36.809Z,80
2017-09-11T07:22:18.158Z,80
2017-09-11T07:22:58.686Z,80
2017-09-11T07:23:39.262Z,75
2017-09-11T07:24:19.896Z,70
2017-09-11T07:25:00.384Z,70
2017-09-11T07:25:41.011Z,75
2017-09-11T07:26:21.514Z,65
2017-09-11T07:27:02.055Z,65
2017-09-11T07:27:42.632Z,65
2017-09-11T07:28:23.238Z,65
2017-09-11T07:29:03.764Z,65
2017-09-11T07:29:44.321Z,70
2017-09-11T07:30:24.860Z,75
2017-09-11T07:31:05.477Z,80
2017-09-11T07:31:46.047Z,80
2017-09-11T07:32:26.554Z,80
2017-09-11T07:33:07.076Z,80
2017-09-11T07:33:47.683Z,85
2017-09-11T07:34:28.249Z,85
2017-09-11T07:35:08.763Z,75
2017-09-11T07:35:49.692Z,75
2017-09-11T07:36:30.182Z,70
2017-09-11T07:37:10.718Z,65
2017-09-11T07:37:51.258Z,55
2017-09-11T07:38:31.841Z,55
2017-09-11T07:39:12.383Z,60
2017-09-11T07:39:52.885Z,60
2017-09-11T07:40:33.443Z,55
2017-09-11T07:41:14.014Z,55
2017-09-11T07:41:54.546Z,55
2017-09-11T07:42:35.049Z,55
2017-09-11T07:43:15.866Z,55
2017-09-11T07:43:56.382Z,55
2017-09-11T07:44:36.878Z,60
2017-09-11T07:45:17.438Z,70
2017-09-11T07:45:57.948Z,85
2017-09-11T07:46:38.504Z,95
2017-09-11T07:47:19.046Z,105
2017-09-11T07:47:59.592Z,120
2017-09-11T07:48:40.136Z,135
2017-09-11T07:49:20.784Z,140
2017-09-11T07:50:02.623Z,145
2017-09-11T07:50:43.150Z,150
2017-09-11T07:51:23.677Z,155
2017-09-11T07:52:04.233Z,165
2017-09-11T07:52:44.818Z,175
2017-09-11T07:53:25.358Z,185
2017-09-11T07:54:05.902Z,185
2017-09-11T07:54:46.445Z,180
2017-09-11T07:55:26.984Z,165
2017-09-11T07:56:07.546Z,155
2017-09-11T07:56:48.120Z,150
2017-09-11T07:57:28.646Z,155
2017-09-11T07:58:09.235Z,155
2017-09-11T07:58:49.777Z,155
2017-09-11T07:59:30.293Z,155
2017-09-11T08:00:10.862Z,150
2017-09-11T08:00:51.393Z,140
2017-09-11T08:01:31.879Z,130
2017-09-11T08:02:12.392Z,120
2017-09-11T08:02:52.948Z,110
2017-09-11T08:03:33.482Z,110
2017-09-11T08:04:14.011Z,105
2017-09-11T08:04:54.578Z,95
2017-09-11T08:05:35.140Z,95
2017-09-11T08:06:16.027Z,95
2017-09-11T08:06:56.556Z,95
2017-09-11T08:07:37.099Z,90
2017-09-11T08:08:17.672Z,100
2017-09-11T08:08:58.213Z,100
2017-09-11T08:09:38.753Z,105
2017-09-11T08:10:19.330Z,100
2017-09-11T08:10:59.876Z,95
2017-09-11T08:11:40.410Z,100
2017-09-11T08:12:20.964Z,105
2017-09-11T08:13:01.521Z,110
2017-09-11T08:13:42.052Z,110
2017-09-11T08:14:22.652Z,105
2017-09-11T08:15:03.184Z,100
2017-09-11T08:15:43.719Z,90
2017-09-11T08:16:24.279Z,90
2017-09-11T08:17:04.831Z,90
2017-09-11T08:17:45.386Z,100
2017-09-11T08:18:25.988Z,105
2017-09-11T08:19:06.502Z,105
2017-09-11T08:19:47.051Z,110
2017-09-11T08:20:27.588Z,115
2017-09-11T08:21:08.092Z,120
2017-09-11T08:21:48.666Z,125
2017-09-11T08:22:29.175Z,125
2017-09-11T08:23:09.707Z,130
2017-09-11T08:23:50.250Z,130
2017-09-11T08:24:30.871Z,130
2017-09-11T08:25:11.395Z,135
2017-09-11T08:25:51.995Z,135
2017-09-11T08:26:32.531Z,140
2017-09-11T08:27:13.200Z,140
2017-09-11T08:27:53.852Z,145
2017-09-11T08:28:34.399Z,145
2017-09-11T08:29:15.008Z,155
2017-09-11T08:29:55.526Z,160
2017-09-11T08:30:36.048Z,155
2017-09-11T08:31:16.736Z,155
2017-09-11T08:31:57.267Z,150
2017-09-11T08:32:37.819Z,145
2017-09-11T08:33:18.396Z,130
2017-09-11T08:33:58.924Z,125
2017-09-11T08:34:39.435Z,115
2017-09-11T08:35:20.046Z,100
2017-09-11T08:36:00.559Z,95
2017-09-11T08:36:41.056Z,85
2017-09-11T08:37:21.737Z,70
2017-09-11T08:38:02.241Z,65
2017-09-11T08:38:42.837Z,65
2017-09-11T08:39:23.331Z,75
2017-09-11T08:40:03.877Z,90
2017-09-11T08:40:44.456Z,110
2017-09-11T08:41:24.997Z,135
2017-09-11T08:42:05.512Z,155
2017-09-11T08:42:46.025Z,165
2017-09-11T08:43:26.555Z,180
2017-09-11T08:44:07.106Z,185
2017-09-11T08:44:47.661Z,180
2017-09-11T08:45:28.186Z,175
2017-09-11T08:46:08.715Z,175
2017-09-11T08:46:49.304Z,180
2017-09-11T08:47:29.915Z,185
2017-09-11T08:48:10.501Z,190
2017-09-11T08:48:51.030Z,190
2017-09-11T08:49:31.629Z,190
2017-09-11T08:50:12.157Z,180
2017-09-11T08:50:52.676Z,170
2017-09-11T08:51:33.182Z,170
2017-09-11T08:52:13.872Z,165
2017-09-11T08:52:54.416Z,155
2017-09-11T08:53:34.991Z,145
2017-09-11T08:54:15.950Z,140
2017-09-11T08:54:56.492Z,135
2017-09-11T08:55:37.117Z,130
2017-09-11T08:56:17.565Z,125
2017-09-11T08:56:58.290Z,135
2017-09-11T08:57:38.869Z,140
2017-09-11T08:58:19.475Z,150
2017-09-11T08:58:59.994Z,160
2017-09-11T08:59:40.553Z,145
2017-09-11T09:00:21.804Z,135
2017-09-11T09:01:02.343Z,155
2017-09-11T09:01:42.922Z,175
2017-09-11T09:02:24.402Z,190
2017-09-11T09:03:05.030Z,200
2017-09-11T09:03:45.615Z,205
2017-09-11T09:04:26.137Z,210
2017-09-11T09:05:06.649Z,220
2017-09-11T09:05:47.179Z,225
2017-09-11T09:06:27.665Z,230
2017-09-11T09:07:08.201Z,235
2017-09-11T09:07:48.781Z,225
2017-09-11T09:08:29.327Z,210
2017-09-11T09:09:09.804Z,215
2017-09-11T09:09:50.353Z,220
2017-09-11T09:10:30.865Z,210
2017-09-11T09:11:11.441Z,195
2017-09-11T09:11:51.927Z,170
2017-09-11T09:12:32.476Z,145
2017-09-11T09:13:13.018Z,140
2017-09-11T09:13:53.565Z,135
2017-09-11T09:14:34.252Z,130
2017-09-11T09:15:14.662Z,125
2017-09-11T09:15:55.218Z,130
2017-09-11T09:16:35.708Z,135
2017-09-11T09:17:16.316Z,120
2017-09-11T09:17:56.878Z,120
2017-09-11T09:18:37.405Z,115
2017-09-11T09:19:17.956Z,105
2017-09-11T09:19:58.520Z,105
2017-09-11T09:20:39.051Z,105
2017-09-11T09:21:19.583Z,105
2017-09-11T09:22:00.132Z,105
2017-09-11T09:22:40.663Z,110
2017-09-11T09:23:21.232Z,110
2017-09-11T09:24:01.850Z,105
2017-09-11T09:24:42.380Z,105
2017-09-11T09:25:22.927Z,115
2017-09-11T09:26:03.523Z,110
2017-09-11T09:26:44.071Z,115
2017-09-11T09:27:24.612Z,120
2017-09-11T09:28:05.260Z,130
2017-09-11T09:28:45.749Z,145
2017-09-11T09:29:26.309Z,150
2017-09-11T09:30:06.867Z,165
2017-09-11T09:30:47.398Z,180
2017-09-11T09:31:27.985Z,210
2017-09-11T09:32:08.530Z,220
2017-09-11T09:32:49.161Z,210
2017-09-11T09:33:29.658Z,195
2017-09-11T09:34:10.201Z,195
2017-09-11T09:34:50.787Z,180
2017-09-11T09:35:31.400Z,155
2017-09-11T09:36:11.961Z,125
2017-09-11T09:36:52.518Z,110
2017-09-11T09:37:33.026Z,110
2017-09-11T09:38:13.579Z,110
2017-09-11T09:38:54.091Z,110
2017-09-11T09:39:34.689Z,115
2017-09-11T09:40:15.200Z,125
2017-09-11T09:40:55.700Z,130
2017-09-11T09:41:36.893Z,125
2017-09-11T09:42:17.456Z,120
2017-09-11T09:42:58.008Z,115
2017-09-11T09:43:38.631Z,110
2017-09-11T09:44:19.130Z,105
2017-09-11T09:45:00.595Z,105